createdAt,value
2017-05-05T00:00:08.327Z,6.6
2017-05-05T00:01:18.588Z,6.62
2017-05-05T00:02:28.841Z,6.64
2017-05-05T00:03:38.787Z,6.72
2017-05-05T00:04:49.045Z,6.59
2017-05-05T00:05:59.309Z,6.6
2017-05-05T00:07:09.569Z,6.71
2017-05-05T00:08:19.520Z,6.62
2017-05-05T00:09:29.777Z,6.62
2017-05-05T00:10:40.040Z,6.57
2017-05-05T00:11:50.313Z,6.68
2017-05-05T00:13:00.258Z,6.77
2017-05-05T00:14:09.889Z,6.78
2017-05-05T00:15:20.144Z,6.75
2017-05-05T00:16:30.408Z,6.7
2017-05-05T00:17:40.664Z,6.74
2017-05-05T00:18:50.924Z,6.78
2017-05-05T00:20:01.197Z,6.72
2017-05-05T00:21:11.142Z,6.82
2017-05-05T00:22:21.399Z,6.75
2017-05-05T00:23:31.039Z,6.77
2017-05-05T00:24:41.308Z,6.77
2017-05-05T00:25:51.571Z,6.82
2017-05-05T00:27:01.512Z,6.83
2017-05-05T00:28:11.775Z,6.78
2017-05-05T00:29:22.034Z,6.83
2017-05-05T00:30:32.297Z,6.95
2017-05-05T00:31:42.561Z,6.93
2017-05-05T00:32:52.817Z,7
2017-05-05T00:34:03.088Z,7.01
2017-05-05T00:35:13.049Z,6.93
2017-05-05T00:36:23.310Z,7.04
2017-05-05T00:37:33.577Z,6.92
2017-05-05T00:38:43.845Z,6.93
2017-05-05T00:39:54.106Z,6.87
2017-05-05T00:41:04.370Z,6.9
2017-05-05T00:42:14.634Z,6.92
2017-05-05T00:43:24.917Z,6.85
2017-05-05T00:44:34.868Z,6.96
2017-05-05T00:45:44.813Z,7.01
2017-05-05T00:46:55.079Z,7.1
2017-05-05T00:48:05.341Z,7.03
2017-05-05T00:49:14.981Z,7.07
2017-05-05T00:50:25.238Z,7.15
2017-05-05T00:51:35.500Z,7.19
2017-05-05T00:52:45.763Z,7.19
2017-05-05T00:53:56.024Z,7.22
2017-05-05T00:55:06.282Z,7.15
2017-05-05T00:56:16.227Z,7.18
2017-05-05T00:57:26.183Z,7.15
2017-05-05T00:58:36.444Z,7.32
2017-05-05T00:59:46.705Z,7.29
2017-05-05T01:00:56.962Z,7.26
2017-05-05T01:02:07.222Z,7.41
2017-05-05T01:03:17.170Z,7.4
2017-05-05T01:04:27.428Z,7.48
2017-05-05T01:05:37.368Z,7.47
2017-05-05T01:06:47.636Z,7.56
2017-05-05T01:07:57.612Z,7.59
2017-05-05T01:09:07.878Z,7.64
2017-05-05T01:10:18.136Z,7.75
2017-05-05T01:11:28.400Z,7.8
2017-05-05T01:12:38.340Z,7.77
2017-05-05T01:13:48.600Z,7.9
2017-05-05T01:14:58.859Z,7.87
2017-05-05T01:16:09.120Z,7.9
2017-05-05T01:17:19.390Z,7.93
2017-05-05T01:18:29.342Z,7.95
2017-05-05T01:19:39.610Z,8.02
2017-05-05T01:20:49.870Z,8.03
2017-05-05T01:22:00.128Z,7.95
2017-05-05T01:23:10.380Z,8.06
2017-05-05T01:24:20.647Z,8.16
2017-05-05T01:25:30.910Z,8.32
2017-05-05T01:26:41.164Z,8.23
2017-05-05T01:27:51.114Z,8.35
2017-05-05T01:29:01.383Z,8.44
2017-05-05T01:30:11.018Z,8.57
2017-05-05T01:31:20.971Z,8.64
2017-05-05T01:32:30.923Z,8.74
2017-05-05T01:33:41.185Z,8.74
2017-05-05T01:34:51.133Z,8.82
2017-05-05T01:36:01.399Z,8.77
2017-05-05T01:37:11.662Z,8.89
2017-05-05T01:38:21.614Z,8.86
2017-05-05T01:39:31.558Z,8.82
2017-05-05T01:40:41.819Z,8.72
2017-05-05T01:41:52.074Z,8.75
2017-05-05T01:43:02.339Z,8.75
2017-05-05T01:44:12.600Z,8.66
2017-05-05T01:45:22.864Z,8.68
2017-05-05T01:46:33.117Z,8.54
2017-05-05T01:47:43.382Z,8.59
2017-05-05T01:48:53.645Z,8.49
2017-05-05T01:50:03.913Z,8.41
2017-05-05T01:51:13.858Z,8.52
2017-05-05T01:52:23.805Z,8.41
2017-05-05T01:53:33.748Z,8.39
2017-05-05T01:54:44.013Z,8.36
2017-05-05T01:55:54.280Z,8.35
2017-05-05T01:57:04.543Z,8.35
2017-05-05T01:58:14.497Z,8.28
2017-05-05T01:59:24.451Z,8.34
2017-05-05T02:00:34.710Z,8.39
2017-05-05T02:01:44.987Z,8.45
2017-05-05T02:02:54.933Z,8.61
2017-05-05T02:04:05.191Z,8.72
2017-05-05T02:05:15.453Z,8.72
2017-05-05T02:06:25.715Z,8.77
2017-05-05T02:07:35.976Z,8.78
2017-05-05T02:08:46.242Z,8.74
2017-05-05T02:09:56.509Z,8.75
2017-05-05T02:11:06.779Z,8.84
2017-05-05T02:12:16.723Z,8.71
2017-05-05T02:13:26.993Z,8.72
2017-05-05T02:14:36.997Z,8.81
2017-05-05T02:15:47.256Z,8.75
2017-05-05T02:16:57.519Z,8.72
2017-05-05T02:18:07.779Z,8.78
2017-05-05T02:19:18.093Z,8.84
2017-05-05T02:20:28.355Z,8.92
2017-05-05T02:21:38.613Z,8.9
2017-05-05T02:22:48.869Z,8.86
2017-05-05T02:23:59.132Z,8.9
2017-05-05T02:25:09.082Z,8.81
2017-05-05T02:26:19.037Z,8.97
2017-05-05T02:27:28.670Z,9
2017-05-05T02:28:38.936Z,9.16
2017-05-05T02:29:49.203Z,9.18
2017-05-05T02:30:59.459Z,9.13
2017-05-05T02:32:09.409Z,9.19
2017-05-05T02:33:19.673Z,9.26
2017-05-05T02:34:29.939Z,9.29
2017-05-05T02:35:40.206Z,9.33
2017-05-05T02:36:50.469Z,9.42
2017-05-05T02:38:00.728Z,9.48
2017-05-05T02:39:10.992Z,9.49
2017-05-05T02:40:21.260Z,9.63
2017-05-05T02:41:31.213Z,9.63
2017-05-05T02:42:41.475Z,9.52
2017-05-05T02:43:51.740Z,9.58
2017-05-05T02:45:01.691Z,9.64
2017-05-05T02:46:11.325Z,9.59
2017-05-05T02:47:21.597Z,9.62
2017-05-05T02:48:31.855Z,9.59
2017-05-05T02:49:42.119Z,9.64
2017-05-05T02:50:52.380Z,9.69
2017-05-05T02:52:02.325Z,9.63
2017-05-05T02:53:12.587Z,9.74
2017-05-05T02:54:22.844Z,9.66
2017-05-05T02:55:33.101Z,9.63
2017-05-05T02:56:43.055Z,9.64
2017-05-05T02:57:53.321Z,9.69
2017-05-05T02:59:03.280Z,9.73
2017-05-05T03:00:13.548Z,9.69
2017-05-05T03:01:23.183Z,9.77
2017-05-05T03:02:33.137Z,9.8
2017-05-05T03:03:43.401Z,9.8
2017-05-05T03:04:53.658Z,9.81
2017-05-05T03:06:03.922Z,9.77
2017-05-05T03:07:14.189Z,9.77
2017-05-05T03:08:24.142Z,9.81
2017-05-05T03:09:34.093Z,9.76
2017-05-05T03:10:44.358Z,9.74
2017-05-05T03:11:54.622Z,9.81
2017-05-05T03:13:04.879Z,9.77
2017-05-05T03:14:15.141Z,9.84
2017-05-05T03:15:25.091Z,9.77
2017-05-05T03:16:35.351Z,9.85
2017-05-05T03:17:45.617Z,9.9
2017-05-05T03:18:55.883Z,9.9
2017-05-05T03:20:05.518Z,9.88
2017-05-05T03:21:15.781Z,9.95
2017-05-05T03:22:26.047Z,9.88
2017-05-05T03:23:35.998Z,9.91
2017-05-05T03:24:46.263Z,9.85
2017-05-05T03:25:56.525Z,9.84
2017-05-05T03:27:06.790Z,9.81
2017-05-05T03:28:17.053Z,9.87
2017-05-05T03:29:26.688Z,9.88
2017-05-05T03:30:36.954Z,9.91
2017-05-05T03:31:47.222Z,9.8
2017-05-05T03:32:57.493Z,9.81
2017-05-05T03:34:07.443Z,9.82
2017-05-05T03:35:17.392Z,9.8
2017-05-05T03:36:27.341Z,9.74
2017-05-05T03:37:37.611Z,9.69
2017-05-05T03:38:47.881Z,9.8
2017-05-05T03:39:58.140Z,9.76
2017-05-05T03:41:07.780Z,9.7
2017-05-05T03:42:17.728Z,9.77
2017-05-05T03:43:27.674Z,9.7
2017-05-05T03:44:37.623Z,9.76
2017-05-05T03:45:47.894Z,9.8
2017-05-05T03:46:57.838Z,9.82
2017-05-05T03:48:07.786Z,9.8
2017-05-05T03:49:17.419Z,9.8
2017-05-05T03:50:27.685Z,9.81
2017-05-05T03:51:37.947Z,9.81
2017-05-05T03:52:48.217Z,9.82
2017-05-05T03:53:58.484Z,9.81
2017-05-05T03:55:08.444Z,9.81
2017-05-05T03:56:18.398Z,9.81
2017-05-05T03:57:28.668Z,9.7
2017-05-05T03:58:38.927Z,9.63
2017-05-05T03:59:49.187Z,9.56
2017-05-05T04:00:59.450Z,9.56
2017-05-05T04:02:09.716Z,9.58
2017-05-05T04:03:19.996Z,9.42
2017-05-05T04:04:29.945Z,9.4
2017-05-05T04:05:39.891Z,9.42
2017-05-05T04:06:49.837Z,9.31
2017-05-05T04:08:00.095Z,9.27
2017-05-05T04:09:10.040Z,9.19
2017-05-05T04:10:19.988Z,9.16
2017-05-05T04:11:30.247Z,9
2017-05-05T04:12:40.507Z,9.09
2017-05-05T04:13:50.771Z,9.09
2017-05-05T04:15:01.032Z,9.02
2017-05-05T04:16:10.670Z,8.97
2017-05-05T04:17:20.942Z,8.9
2017-05-05T04:18:31.205Z,8.96
2017-05-05T04:19:41.470Z,8.99
2017-05-05T04:20:51.734Z,9.03
2017-05-05T04:22:01.996Z,9.08
2017-05-05T04:23:12.262Z,9.15
2017-05-05T04:24:22.551Z,9.19
2017-05-05T04:25:32.820Z,9.34
2017-05-05T04:26:43.110Z,9.26
2017-05-05T04:27:53.052Z,9.36
2017-05-05T04:29:03.313Z,9.33
2017-05-05T04:30:13.264Z,9.4
2017-05-05T04:31:23.523Z,9.45
2017-05-05T04:32:33.465Z,9.47
2017-05-05T04:33:43.728Z,9.47
2017-05-05T04:34:53.990Z,9.49
2017-05-05T04:36:04.250Z,9.59
2017-05-05T04:37:14.204Z,9.59
2017-05-05T04:38:24.463Z,9.63
2017-05-05T04:39:34.725Z,9.59
2017-05-05T04:40:44.984Z,9.52
2017-05-05T04:41:55.244Z,9.58
2017-05-05T04:43:05.197Z,9.63
2017-05-05T04:44:14.831Z,9.48
2017-05-05T04:45:25.093Z,9.49
2017-05-05T04:46:35.353Z,9.49
2017-05-05T04:47:45.621Z,9.54
2017-05-05T04:48:55.890Z,9.55
2017-05-05T04:50:06.157Z,9.54
2017-05-05T04:51:16.415Z,9.56
2017-05-05T04:52:26.674Z,9.49
2017-05-05T04:53:36.946Z,9.55
2017-05-05T04:54:47.213Z,9.52
2017-05-05T04:55:57.491Z,9.55
2017-05-05T04:57:07.754Z,9.62
2017-05-05T04:58:17.392Z,9.52
2017-05-05T04:59:27.342Z,9.54
2017-05-05T05:00:37.299Z,9.63
2017-05-05T05:01:47.594Z,9.66
2017-05-05T05:02:57.859Z,9.63
2017-05-05T05:04:08.124Z,9.62
2017-05-05T05:05:18.080Z,9.73
2017-05-05T05:06:28.027Z,9.77
2017-05-05T05:07:38.295Z,9.85
2017-05-05T05:08:48.558Z,9.77
2017-05-05T05:09:58.825Z,9.77
2017-05-05T05:11:09.080Z,9.88
2017-05-05T05:12:19.028Z,9.91
2017-05-05T05:13:29.289Z,10.03
2017-05-05T05:14:39.850Z,9.99
2017-05-05T05:15:50.113Z,10.09
2017-05-05T05:17:00.371Z,10.17
2017-05-05T05:18:10.632Z,10.2
2017-05-05T05:19:20.901Z,10.24
2017-05-05T05:20:31.175Z,10.36
2017-05-05T05:21:41.440Z,10.33
2017-05-05T05:22:51.706Z,10.33
2017-05-05T05:24:02.018Z,10.36
2017-05-05T05:25:12.285Z,10.33
2017-05-05T05:26:22.796Z,10.33
2017-05-05T05:27:33.068Z,10.33
2017-05-05T05:28:43.019Z,10.28
2017-05-05T05:29:53.328Z,10.18
2017-05-05T05:31:03.591Z,10.31
2017-05-05T05:32:15.852Z,10.38
2017-05-05T05:33:26.124Z,10.33
2017-05-05T05:34:36.411Z,10.42
2017-05-05T05:35:46.670Z,10.45
2017-05-05T05:36:56.296Z,10.43
2017-05-05T05:38:06.558Z,10.41
2017-05-05T05:39:16.815Z,10.51
2017-05-05T05:40:26.763Z,10.51
2017-05-05T05:41:36.722Z,10.59
2017-05-05T05:42:46.980Z,10.61
2017-05-05T05:43:57.244Z,10.69
2017-05-05T05:45:07.191Z,10.84
2017-05-05T05:46:17.453Z,10.92
2017-05-05T05:47:27.723Z,10.94
2017-05-05T05:48:37.986Z,11.04
2017-05-05T05:49:48.245Z,11.13
2017-05-05T05:50:58.517Z,11.13
2017-05-05T05:52:07.838Z,11.18
2017-05-05T05:53:18.105Z,11.2
2017-05-05T05:54:28.372Z,11.16
2017-05-05T05:55:38.323Z,11.25
2017-05-05T05:56:48.587Z,11.34
2017-05-05T05:57:58.880Z,11.41
2017-05-05T05:59:09.148Z,11.4
2017-05-05T06:00:19.409Z,11.4
2017-05-05T06:01:29.685Z,11.51
2017-05-05T06:02:39.949Z,11.44
2017-05-05T06:03:50.213Z,11.52
2017-05-05T06:05:00.477Z,11.56
2017-05-05T06:06:10.426Z,11.49
2017-05-05T06:07:20.372Z,11.49
2017-05-05T06:08:30.641Z,11.53
2017-05-05T06:09:40.901Z,11.65
2017-05-05T06:10:50.848Z,11.56
2017-05-05T06:12:01.116Z,11.67
2017-05-05T06:13:11.071Z,11.65
2017-05-05T06:14:21.334Z,11.68
2017-05-05T06:15:31.597Z,11.67
2017-05-05T06:16:41.864Z,11.58
2017-05-05T06:17:52.142Z,11.7
2017-05-05T06:19:02.100Z,11.59
2017-05-05T06:20:12.361Z,11.62
2017-05-05T06:21:22.001Z,11.63
2017-05-05T06:22:32.274Z,11.74
2017-05-05T06:23:42.533Z,11.76
2017-05-05T06:24:52.799Z,11.86
2017-05-05T06:26:02.749Z,11.86
2017-05-05T06:27:12.697Z,11.81
2017-05-05T06:28:22.960Z,11.81
2017-05-05T06:29:33.221Z,11.93
2017-05-05T06:30:43.163Z,11.99
2017-05-05T06:31:53.429Z,11.99
2017-05-05T06:33:03.690Z,12.05
2017-05-05T06:34:13.961Z,12.07
2017-05-05T06:35:24.256Z,12
2017-05-05T06:36:34.512Z,12.02
2017-05-05T06:37:44.774Z,11.95
2017-05-05T06:38:55.036Z,12.1
2017-05-05T06:40:05.301Z,12
2017-05-05T06:41:15.255Z,12.1
2017-05-05T06:42:25.521Z,12.1
2017-05-05T06:43:35.785Z,12.14
2017-05-05T06:44:45.743Z,12.11
2017-05-05T06:45:56.061Z,12.18
2017-05-05T06:47:06.326Z,12.11
2017-05-05T06:48:16.304Z,12.23
2017-05-05T06:49:26.581Z,12.3
2017-05-05T06:50:36.530Z,12.33
2017-05-05T06:51:46.790Z,12.3
2017-05-05T06:52:57.049Z,12.37
2017-05-05T06:54:07.005Z,12.44
2017-05-05T06:55:16.962Z,12.44
2017-05-05T06:56:27.221Z,12.36
2017-05-05T06:57:37.492Z,12.48
2017-05-05T06:58:47.754Z,12.44
2017-05-05T06:59:58.031Z,12.55
2017-05-05T07:01:08.298Z,12.51
2017-05-05T07:02:18.583Z,12.47
2017-05-05T07:03:28.867Z,12.51
2017-05-05T07:04:39.140Z,12.57
2017-05-05T07:05:49.404Z,12.65
2017-05-05T07:06:59.354Z,12.58
2017-05-05T07:08:09.299Z,12.62
2017-05-05T07:09:19.248Z,12.63
2017-05-05T07:10:29.512Z,12.66
2017-05-05T07:11:39.779Z,12.8
2017-05-05T07:12:50.043Z,12.72
2017-05-05T07:14:00.304Z,12.78
2017-05-05T07:15:09.963Z,12.83
2017-05-05T07:16:19.910Z,12.81
2017-05-05T07:17:30.172Z,12.81
2017-05-05T07:18:40.114Z,12.99
2017-05-05T07:19:50.382Z,12.94
2017-05-05T07:21:00.647Z,12.98
2017-05-05T07:22:10.920Z,12.95
2017-05-05T07:23:20.866Z,13.01
2017-05-05T07:24:31.143Z,12.87
2017-05-05T07:25:41.417Z,12.88
2017-05-05T07:26:51.688Z,12.99
2017-05-05T07:28:01.655Z,12.95
2017-05-05T07:29:11.625Z,12.98
2017-05-05T07:30:21.896Z,13.09
2017-05-05T07:31:31.532Z,13.08
2017-05-05T07:32:41.796Z,13.19
2017-05-05T07:33:52.068Z,13.17
2017-05-05T07:35:02.336Z,13.26
2017-05-05T07:36:11.663Z,13.19
2017-05-05T07:37:21.935Z,13.26
2017-05-05T07:38:31.894Z,13.3
2017-05-05T07:39:42.169Z,13.24
2017-05-05T07:40:52.430Z,13.39
2017-05-05T07:42:02.690Z,13.36
2017-05-05T07:43:12.327Z,13.45
2017-05-05T07:44:22.287Z,13.5
2017-05-05T07:45:32.232Z,13.47
2017-05-05T07:46:42.494Z,13.52
2017-05-05T07:47:52.755Z,13.58
2017-05-05T07:49:02.703Z,13.64
2017-05-05T07:50:12.338Z,13.67
2017-05-05T07:51:22.287Z,13.68
2017-05-05T07:52:32.234Z,13.61
2017-05-05T07:53:42.499Z,13.71
2017-05-05T07:54:52.766Z,13.73
2017-05-05T07:56:02.898Z,13.89
2017-05-05T07:57:12.530Z,13.76
2017-05-05T07:58:22.478Z,13.82
2017-05-05T07:59:32.428Z,13.83
2017-05-05T08:00:42.691Z,13.87
2017-05-05T08:01:52.960Z,13.87
2017-05-05T08:03:03.245Z,14.04
2017-05-05T08:04:13.509Z,13.93
2017-05-05T08:05:23.776Z,14.03
2017-05-05T08:06:34.043Z,14
2017-05-05T08:07:44.318Z,14.05
2017-05-05T08:08:54.280Z,13.97
2017-05-05T08:10:03.918Z,14.05
2017-05-05T08:11:14.184Z,14.07
2017-05-05T08:12:24.132Z,14.07
2017-05-05T08:13:34.405Z,14.15
2017-05-05T08:14:44.674Z,14.2
2017-05-05T08:15:54.964Z,14.36
2017-05-05T08:17:04.600Z,14.36
2017-05-05T08:18:14.861Z,14.31
2017-05-05T08:19:24.812Z,14.43
2017-05-05T08:20:35.076Z,14.41
2017-05-05T08:21:45.366Z,14.4
2017-05-05T08:22:55.629Z,14.48
2017-05-05T08:24:05.892Z,14.52
2017-05-05T08:25:16.156Z,14.53
2017-05-05T08:26:26.108Z,14.62
2017-05-05T08:27:36.373Z,14.55
2017-05-05T08:28:46.645Z,14.68
2017-05-05T08:29:56.603Z,14.71
2017-05-05T08:31:06.870Z,14.68
2017-05-05T08:32:16.823Z,14.74
2017-05-05T08:33:26.769Z,14.73
2017-05-05T08:34:36.729Z,14.67
2017-05-05T08:35:46.998Z,14.59
2017-05-05T08:36:57.262Z,14.51
2017-05-05T08:38:07.515Z,14.58
2017-05-05T08:39:17.158Z,14.61
2017-05-05T08:40:27.430Z,14.62
2017-05-05T08:41:37.724Z,14.61
2017-05-05T08:42:47.675Z,14.63
2017-05-05T08:43:57.935Z,14.71
2017-05-05T08:45:07.884Z,14.81
2017-05-05T08:46:17.830Z,14.81
2017-05-05T08:47:27.467Z,14.81
2017-05-05T08:48:37.736Z,14.89
2017-05-05T08:49:47.694Z,14.87
2017-05-05T08:50:57.960Z,14.82
2017-05-05T08:52:07.594Z,14.89
2017-05-05T08:53:17.549Z,14.96
2017-05-05T08:54:27.818Z,14.97
2017-05-05T08:55:38.084Z,14.99
2017-05-05T08:56:48.353Z,15.15
2017-05-05T08:57:58.628Z,15.04
2017-05-05T08:59:07.961Z,15.02
2017-05-05T09:00:17.601Z,14.96
2017-05-05T09:01:27.870Z,14.93
2017-05-05T09:02:38.140Z,15
2017-05-05T09:03:48.408Z,15.11
2017-05-05T09:04:58.676Z,15.08
2017-05-05T09:06:08.637Z,15.14
2017-05-05T09:07:18.589Z,15.05
2017-05-05T09:08:28.850Z,14.96
2017-05-05T09:09:39.113Z,15.22
2017-05-05T09:10:49.377Z,15.39
2017-05-05T09:11:59.658Z,15.5
2017-05-05T09:13:09.611Z,15.63
2017-05-05T09:14:19.883Z,15.81
2017-05-05T09:15:29.831Z,15.83
2017-05-05T09:16:39.786Z,15.84
2017-05-05T09:17:50.055Z,15.85
2017-05-05T09:19:00.009Z,16.08
2017-05-05T09:20:10.279Z,16.12
2017-05-05T09:21:20.546Z,15.94
2017-05-05T09:22:30.184Z,15.96
2017-05-05T09:23:40.477Z,16.09
2017-05-05T09:24:50.751Z,16.25
2017-05-05T09:26:01.017Z,16.36
2017-05-05T09:27:10.985Z,16.51
2017-05-05T09:28:21.259Z,16.72
2017-05-05T09:29:31.529Z,16.68
2017-05-05T09:30:41.793Z,16.89
2017-05-05T09:31:52.055Z,17.01
2017-05-05T09:33:02.321Z,16.64
2017-05-05T09:34:12.281Z,16.49
2017-05-05T09:35:22.574Z,16.44
2017-05-05T09:36:32.526Z,16.13
2017-05-05T09:37:42.793Z,16.05
2017-05-05T09:38:53.059Z,16.05
2017-05-05T09:40:03.329Z,16
2017-05-05T09:41:13.283Z,16.08
2017-05-05T09:42:22.926Z,16.22
2017-05-05T09:43:33.225Z,16.34
2017-05-05T09:44:43.490Z,16.44
2017-05-05T09:45:53.753Z,16.41
2017-05-05T09:47:04.021Z,16.47
2017-05-05T09:48:14.285Z,16.55
2017-05-05T09:49:24.552Z,16.62
2017-05-05T09:50:34.503Z,16.59
2017-05-05T09:51:44.766Z,16.79
2017-05-05T09:52:54.716Z,16.68
2017-05-05T09:54:04.674Z,16.76
2017-05-05T09:55:14.960Z,16.8
2017-05-05T09:56:25.225Z,16.69
2017-05-05T09:57:35.174Z,16.59
2017-05-05T09:58:45.439Z,16.65
2017-05-05T09:59:55.710Z,16.55
2017-05-05T10:01:05.981Z,16.51
2017-05-05T10:02:15.938Z,16.59
2017-05-05T10:03:26.206Z,16.73
2017-05-05T10:04:36.476Z,16.83
2017-05-05T10:05:46.746Z,16.84
2017-05-05T10:06:56.693Z,16.95
2017-05-05T10:08:06.961Z,17.09
2017-05-05T10:09:17.227Z,17.19
2017-05-05T10:10:27.183Z,17.14
2017-05-05T10:11:36.834Z,17.28
2017-05-05T10:12:47.109Z,17.24
2017-05-05T10:13:57.058Z,17.38
2017-05-05T10:15:07.329Z,17.3
2017-05-05T10:16:17.286Z,17.35
2017-05-05T10:17:27.246Z,17.41
2017-05-05T10:18:37.210Z,17.49
2017-05-05T10:19:47.479Z,17.42
2017-05-05T10:20:57.515Z,17.47
2017-05-05T10:22:07.464Z,17.63
2017-05-05T10:23:17.102Z,17.78
2017-05-05T10:24:27.371Z,17.79
2017-05-05T10:25:37.635Z,17.87
2017-05-05T10:26:47.900Z,17.95
2017-05-05T10:27:58.178Z,18.03
2017-05-05T10:29:08.448Z,17.98
2017-05-05T10:30:18.414Z,18.02
2017-05-05T10:31:28.401Z,18.06
2017-05-05T10:32:38.357Z,18.08
2017-05-05T10:33:48.633Z,18.11
2017-05-05T10:34:58.905Z,18.18
2017-05-05T10:36:08.860Z,18.15
2017-05-05T10:37:19.129Z,18.05
2017-05-05T10:38:29.087Z,18.12
2017-05-05T10:39:39.359Z,18.16
2017-05-05T10:40:49.646Z,18.19
2017-05-05T10:41:59.906Z,18.24
2017-05-05T10:43:09.551Z,18.27
2017-05-05T10:44:19.508Z,18.34
2017-05-05T10:45:29.781Z,18.31
2017-05-05T10:46:40.051Z,18.26
2017-05-05T10:47:50.337Z,18.31
2017-05-05T10:49:00.298Z,18.36
2017-05-05T10:50:09.627Z,18.31
2017-05-05T10:51:19.897Z,18.42
2017-05-05T10:52:29.859Z,18.36
2017-05-05T10:53:40.126Z,18.33
2017-05-05T10:54:50.394Z,18.53
2017-05-05T10:56:00.667Z,18.49
2017-05-05T10:57:10.308Z,18.49
2017-05-05T10:58:20.579Z,18.6
2017-05-05T10:59:30.853Z,18.6
2017-05-05T11:00:41.120Z,18.67
2017-05-05T11:01:51.078Z,18.7
2017-05-05T11:03:01.355Z,18.74
2017-05-05T11:04:11.626Z,18.85
2017-05-05T11:05:21.578Z,18.83
2017-05-05T11:06:31.542Z,18.98
2017-05-05T11:07:41.815Z,18.91
2017-05-05T11:08:52.106Z,18.6
2017-05-05T11:10:02.379Z,18.58
2017-05-05T11:11:12.650Z,18.73
2017-05-05T11:12:22.605Z,18.78
2017-05-05T11:13:32.879Z,18.79
2017-05-05T11:14:42.844Z,18.67
2017-05-05T11:15:53.119Z,18.48
2017-05-05T11:17:03.388Z,18.41
2017-05-05T11:18:13.030Z,18.45
2017-05-05T11:19:22.984Z,18.52
2017-05-05T11:20:33.253Z,18.67
2017-05-05T11:21:43.521Z,19.01
2017-05-05T11:22:53.813Z,19.47
2017-05-05T11:24:03.771Z,19.9
2017-05-05T11:25:13.725Z,20.1
2017-05-05T11:26:23.761Z,20.39
2017-05-05T11:27:34.030Z,20.4
2017-05-05T11:28:44.301Z,20.75
2017-05-05T11:29:54.570Z,21.19
2017-05-05T11:31:04.536Z,21.85
2017-05-05T11:32:14.500Z,22.31
2017-05-05T11:33:24.803Z,22.83
2017-05-05T11:34:34.770Z,22.83
2017-05-05T11:35:44.728Z,23.25
2017-05-05T11:36:54.693Z,23.91
2017-05-05T11:38:04.971Z,23.89
2017-05-05T11:39:15.277Z,23.84
2017-05-05T11:40:25.551Z,23.94
2017-05-05T11:41:35.509Z,23.91
2017-05-05T11:42:45.792Z,23.44
2017-05-05T11:43:56.072Z,23.33
2017-05-05T11:45:06.380Z,23.33
2017-05-05T11:46:16.364Z,23.33
2017-05-05T11:47:26.338Z,23.17
2017-05-05T11:48:35.993Z,22.98
2017-05-05T11:49:46.275Z,23.14
2017-05-05T11:50:56.246Z,23.51
2017-05-05T11:52:06.525Z,23.63
2017-05-05T11:53:16.810Z,23.64
2017-05-05T11:54:26.778Z,23.77
2017-05-05T11:55:37.058Z,24.38
2017-05-05T11:56:47.026Z,24.58
2017-05-05T11:57:57.313Z,25.15
2017-05-05T11:59:07.616Z,24.24
2017-05-05T12:00:17.893Z,23.92
2017-05-05T12:01:28.177Z,23.94
2017-05-05T12:02:37.837Z,24.22
2017-05-05T12:03:48.123Z,25.09
2017-05-05T12:04:58.098Z,25.15
2017-05-05T12:06:08.068Z,25.46
2017-05-05T12:07:17.412Z,26.06
2017-05-05T12:08:26.756Z,26.15
2017-05-05T12:09:36.716Z,26.08
2017-05-05T12:10:46.693Z,25.25
2017-05-05T12:11:56.979Z,25.39
2017-05-05T12:13:07.270Z,26.24
2017-05-05T12:14:16.923Z,26.71
2017-05-05T12:15:26.572Z,27.29
2017-05-05T12:16:36.851Z,27.26
2017-05-05T12:17:47.139Z,27.57
2017-05-05T12:18:57.424Z,28.1
2017-05-05T12:20:07.394Z,28.27
2017-05-05T12:21:17.056Z,28.33
2017-05-05T12:22:26.724Z,28.49
2017-05-05T12:23:37.018Z,28
2017-05-05T12:24:46.990Z,27.18
2017-05-05T12:25:57.280Z,27.13
2017-05-05T12:27:07.569Z,26.97
2017-05-05T12:28:17.859Z,27.73
2017-05-05T12:29:28.141Z,28.28
2017-05-05T12:30:38.421Z,27.81
2017-05-05T12:31:48.708Z,26.92
2017-05-05T12:32:58.368Z,26.44
2017-05-05T12:34:08.650Z,26.04
2017-05-05T12:35:18.618Z,25.63
2017-05-05T12:36:28.278Z,26.18
2017-05-05T12:37:38.576Z,25.77
2017-05-05T12:38:48.544Z,25.43
2017-05-05T12:39:58.839Z,25.63
2017-05-05T12:41:08.804Z,25.56
2017-05-05T12:42:19.083Z,25.48
2017-05-05T12:43:29.048Z,25.95
2017-05-05T12:44:39.029Z,25.66
2017-05-05T12:45:49.001Z,26.16
2017-05-05T12:46:58.975Z,26.33
2017-05-05T12:48:09.259Z,26.39
2017-05-05T12:49:19.568Z,26.37
2017-05-05T12:50:29.849Z,26.79
2017-05-05T12:51:39.820Z,27.03
2017-05-05T12:52:50.107Z,26.97
2017-05-05T12:54:00.394Z,27.26
2017-05-05T12:55:10.674Z,27.98
2017-05-05T12:56:20.955Z,28.65
2017-05-05T12:57:31.244Z,29.27
2017-05-05T12:58:41.212Z,29.8
2017-05-05T12:59:51.183Z,30.26
2017-05-05T13:01:01.150Z,30.63
2017-05-05T13:02:11.433Z,31
2017-05-05T13:03:21.409Z,31.25
2017-05-05T13:04:31.694Z,31.66
2017-05-05T13:05:41.988Z,32.09
2017-05-05T13:06:51.954Z,32.41
2017-05-05T13:08:02.243Z,32.54
2017-05-05T13:09:12.214Z,32.88
2017-05-05T13:10:22.190Z,33.04
2017-05-05T13:11:32.479Z,33.29
2017-05-05T13:12:42.787Z,33.75
2017-05-05T13:13:53.073Z,34.11
2017-05-05T13:15:02.725Z,34.55
2017-05-05T13:16:13.017Z,34.75
2017-05-05T13:17:23.306Z,35.13
2017-05-05T13:18:33.594Z,35.54
2017-05-05T13:19:43.878Z,35.59
2017-05-05T13:20:54.168Z,35.6
2017-05-05T13:22:03.825Z,35.59
2017-05-05T13:23:14.115Z,35.56
2017-05-05T13:24:24.403Z,35.47
2017-05-05T13:25:34.697Z,34.47
2017-05-05T13:26:44.988Z,33.22
2017-05-05T13:27:55.275Z,32.01
2017-05-05T13:29:05.561Z,31.79
2017-05-05T13:30:15.528Z,31.59
2017-05-05T13:31:25.812Z,31.6
2017-05-05T13:32:36.114Z,31.32
2017-05-05T13:33:46.415Z,31.77
2017-05-05T13:34:56.707Z,31.51
2017-05-05T13:36:06.993Z,32.05
2017-05-05T13:37:17.275Z,32.68
2017-05-05T13:38:27.250Z,32.34
2017-05-05T13:39:37.539Z,32.17
2017-05-05T13:40:47.516Z,32.29
2017-05-05T13:41:57.811Z,32.59
2017-05-05T13:43:08.129Z,31.1
2017-05-05T13:44:18.417Z,29.71
2017-05-05T13:45:28.708Z,29.3
2017-05-05T13:46:38.994Z,30.26
2017-05-05T13:47:49.283Z,29.79
2017-05-05T13:48:59.263Z,30.62
2017-05-05T13:50:09.563Z,31.44
2017-05-05T13:51:19.537Z,31.15
2017-05-05T13:52:29.510Z,31.35
2017-05-05T13:53:39.801Z,31.11
2017-05-05T13:54:50.097Z,30.39
2017-05-05T13:56:00.385Z,30.2
2017-05-05T13:57:10.358Z,29.8
2017-05-05T13:58:20.047Z,29.34
2017-05-05T13:59:30.019Z,29.03
2017-05-05T14:00:39.675Z,27.91
2017-05-05T14:01:49.962Z,27
2017-05-05T14:02:59.959Z,26.96
2017-05-05T14:04:10.244Z,26.55
2017-05-05T14:05:20.531Z,26.22
2017-05-05T14:06:30.814Z,26.42
2017-05-05T14:07:40.778Z,26.22
2017-05-05T14:08:51.066Z,26.31
2017-05-05T14:10:01.348Z,26.31
2017-05-05T14:11:11.635Z,26.07
2017-05-05T14:12:21.923Z,25.91
2017-05-05T14:13:32.204Z,26.11
2017-05-05T14:14:42.490Z,26.42
2017-05-05T14:15:52.770Z,27.16
2017-05-05T14:17:03.052Z,27.88
2017-05-05T14:18:13.031Z,28.46
2017-05-05T14:19:22.999Z,28.74
2017-05-05T14:20:33.286Z,29.35
2017-05-05T14:21:43.573Z,29.96
2017-05-05T14:22:53.856Z,30.62
2017-05-05T14:24:04.136Z,31.14
2017-05-05T14:25:14.105Z,31.55
2017-05-05T14:26:24.388Z,31.82
2017-05-05T14:27:34.674Z,32.12
2017-05-05T14:28:44.961Z,32.46
2017-05-05T14:29:55.250Z,32.68
2017-05-05T14:31:05.535Z,32.88
2017-05-05T14:32:15.828Z,33.09
2017-05-05T14:33:26.111Z,33.17
2017-05-05T14:34:36.083Z,33.48
2017-05-05T14:35:46.370Z,33.53
2017-05-05T14:36:56.652Z,33.57
2017-05-05T14:38:06.936Z,33.67
2017-05-05T14:39:16.907Z,33.39
2017-05-05T14:40:27.218Z,33.19
2017-05-05T14:41:37.507Z,33.12
2017-05-05T14:42:47.787Z,33.16
2017-05-05T14:43:57.757Z,33.22
2017-05-05T14:45:07.765Z,33.63
2017-05-05T14:46:18.052Z,33.94
2017-05-05T14:47:28.334Z,34.29
2017-05-05T14:48:38.619Z,33.76
2017-05-05T14:49:48.901Z,34.13
2017-05-05T14:50:59.184Z,33.7
2017-05-05T14:52:09.468Z,33.19
2017-05-05T14:54:47.241Z,30.17
2017-05-05T14:55:57.214Z,29.64
2017-05-05T14:57:07.496Z,30.4
2017-05-05T14:58:17.153Z,30.93
2017-05-05T14:59:29.718Z,30.43
2017-05-05T15:00:40.002Z,30.13
2017-05-05T15:01:50.292Z,30.31
2017-05-05T15:03:00.573Z,30.2
2017-05-05T15:04:10.856Z,30.54
2017-05-05T15:05:23.081Z,30.88
2017-05-05T15:06:33.369Z,30.4
2017-05-05T15:07:43.658Z,30.43
2017-05-05T15:08:53.953Z,29.84
2017-05-05T15:10:04.251Z,29.4
2017-05-05T15:11:14.840Z,28.37
2017-05-05T15:12:25.123Z,27.82
2017-05-05T15:13:35.437Z,27.91
2017-05-05T15:14:45.721Z,27.64
2017-05-05T15:15:55.692Z,27.71
2017-05-05T15:17:08.274Z,27.44
2017-05-05T15:18:18.557Z,27.41